createdAt,value
2019-01-21T00:00:42.673Z,34.38
2019-01-21T00:03:14.359Z,35.30
2019-01-21T00:05:41.010Z,37.85
2019-01-21T00:08:07.189Z,36.03
2019-01-21T00:10:34.290Z,31.52
2019-01-21T00:13:02.819Z,33.58
2019-01-21T00:15:31.002Z,38.28
2019-01-21T00:17:59.024Z,33.92
2019-01-21T00:20:41.293Z,35.43
2019-01-21T00:23:13.163Z,31.55
2019-01-21T00:25:47.182Z,35.55
2019-01-21T00:28:13.192Z,31.65
2019-01-21T00:30:39.325Z,32.38
2019-01-21T00:33:05.582Z,35.17
2019-01-21T00:35:33.790Z,34.00
2019-01-21T00:37:59.814Z,34.70
2019-01-21T00:40:26.033Z,34.80
2019-01-21T00:42:52.076Z,36.80
2019-01-21T00:45:32.337Z,33.40
2019-01-21T00:48:08.395Z,34.50
2019-01-21T00:50:34.538Z,36.83
2019-01-21T00:53:15.996Z,40.48
2019-01-21T00:55:42.059Z,35.55
2019-01-21T00:58:08.117Z,26.93
2019-01-21T01:00:34.536Z,35.92
2019-01-21T01:03:05.556Z,35.30
2019-01-21T01:05:34.788Z,35.33
2019-01-21T01:08:07.293Z,37.88
2019-01-21T01:10:33.392Z,38.63
2019-01-21T01:12:59.459Z,36.95
2019-01-21T01:15:28.577Z,39.50
2019-01-21T01:17:55.725Z,33.30
2019-01-21T01:20:21.826Z,34.48
2019-01-21T01:22:48.993Z,37.30
2019-01-21T01:25:17.054Z,33.78
2019-01-21T01:27:51.793Z,34.18
2019-01-21T01:30:19.870Z,39.27
2019-01-21T01:32:54.300Z,34.50
2019-01-21T01:35:20.421Z,35.45
2019-01-21T01:37:46.949Z,37.60
2019-01-21T01:40:19.806Z,40.50
2019-01-21T01:42:54.774Z,39.73
2019-01-21T01:45:26.680Z,40.65
2019-01-21T01:47:57.366Z,35.65
2019-01-21T01:50:34.557Z,33.78
2019-01-21T01:53:00.686Z,37.05
2019-01-21T01:55:32.314Z,38.02
2019-01-21T01:58:01.731Z,40.43
2019-01-21T02:00:32.082Z,37.95
2019-01-21T02:02:58.084Z,38.00
2019-01-21T02:05:31.408Z,33.53
2019-01-21T02:07:58.709Z,35.48
2019-01-21T02:10:28.549Z,38.02
2019-01-21T02:12:54.950Z,35.20
2019-01-21T02:15:21.261Z,36.45
2019-01-21T02:17:52.166Z,32.58
2019-01-21T02:20:18.542Z,38.28
2019-01-21T02:22:48.722Z,38.90
2019-01-21T02:25:15.184Z,40.52
2019-01-21T02:28:08.920Z,36.08
2019-01-21T02:31:10.380Z,30.52
2019-01-21T02:34:12.395Z,34.92
2019-01-21T02:37:11.436Z,38.85
2019-01-21T02:40:22.379Z,33.95
2019-01-21T02:43:01.396Z,34.80
2019-01-21T02:45:55.679Z,33.88
2019-01-21T02:48:40.313Z,42.95
2019-01-21T02:51:28.619Z,39.58
2019-01-21T02:54:01.310Z,37.38
2019-01-21T02:56:37.075Z,32.23
2019-01-21T02:59:18.738Z,36.75
2019-01-21T03:02:11.612Z,39.23
2019-01-21T03:05:19.266Z,39.18
2019-01-21T03:07:52.928Z,32.65
2019-01-21T03:10:28.935Z,34.40
2019-01-21T03:13:32.350Z,39.45
2019-01-21T03:16:17.068Z,35.48
2019-01-21T03:18:59.243Z,39.40
2019-01-21T03:21:49.109Z,39.50
2019-01-21T03:24:45.054Z,40.38
2019-01-21T03:27:31.630Z,33.63
2019-01-21T03:30:22.118Z,39.55
2019-01-21T03:33:13.006Z,32.25
2019-01-21T03:36:00.748Z,36.10
2019-01-21T03:38:48.748Z,37.93
2019-01-21T03:41:23.205Z,39.27
2019-01-21T03:44:03.543Z,40.23
2019-01-21T03:46:51.017Z,33.55
2019-01-21T03:49:29.015Z,33.65
2019-01-21T03:52:37.649Z,32.23
2019-01-21T03:55:08.664Z,42.65
2019-01-21T03:58:05.740Z,46.13
2019-01-21T04:00:43.803Z,40.75
2019-01-21T04:03:37.905Z,34.88
2019-01-21T04:06:07.880Z,36.98
2019-01-21T04:08:54.107Z,36.85
2019-01-21T04:11:31.997Z,34.95
2019-01-21T04:14:42.459Z,38.20
2019-01-21T04:17:16.308Z,39.27
2019-01-21T04:19:51.738Z,46.35
2019-01-21T04:22:29.254Z,36.98
2019-01-21T04:25:25.795Z,39.35
2019-01-21T04:28:04.603Z,41.40
2019-01-21T04:30:36.575Z,40.05
2019-01-21T04:33:19.090Z,42.43
2019-01-21T04:35:51.738Z,37.23
2019-01-21T04:38:29.981Z,49.93
2019-01-21T04:41:11.506Z,39.50
2019-01-21T04:43:56.582Z,40.15
2019-01-21T04:46:48.203Z,37.65
2019-01-21T04:49:51.725Z,37.03
2019-01-21T04:52:22.691Z,38.63
2019-01-21T04:55:12.754Z,43.85
2019-01-21T04:58:04.299Z,40.90
2019-01-21T05:00:55.289Z,42.30
2019-01-21T05:03:31.262Z,44.15
2019-01-21T05:06:14.920Z,42.03
2019-01-21T05:08:55.446Z,39.23
2019-01-21T05:11:46.200Z,43.30
2019-01-21T05:14:25.207Z,39.92
2019-01-21T05:17:14.556Z,43.40
2019-01-21T05:20:05.896Z,44.13
2019-01-21T05:22:38.688Z,55.85
2019-01-21T05:25:27.842Z,40.80
2019-01-21T05:28:11.488Z,44.63
2019-01-21T05:30:58.000Z,44.88
2019-01-21T05:33:37.317Z,43.02
2019-01-21T05:36:11.077Z,44.42
2019-01-21T05:39:06.915Z,46.00
2019-01-21T05:42:05.405Z,42.48
2019-01-21T05:44:44.490Z,43.60
2019-01-21T05:47:35.898Z,46.90
2019-01-21T05:50:11.975Z,48.55
2019-01-21T05:53:13.875Z,44.00
2019-01-21T05:56:20.651Z,45.00
2019-01-21T05:59:10.522Z,47.00
2019-01-21T06:01:54.798Z,44.98
2019-01-21T06:04:45.116Z,44.63
2019-01-21T06:07:34.667Z,39.20
2019-01-21T06:10:38.307Z,40.78
2019-01-21T06:13:20.228Z,45.33
2019-01-21T06:16:18.182Z,47.90
2019-01-21T06:18:57.518Z,42.83
2019-01-21T06:21:47.180Z,43.95
2019-01-21T06:24:19.708Z,45.78
2019-01-21T06:26:58.590Z,48.02
2019-01-21T06:29:41.787Z,42.33
2019-01-21T06:32:34.866Z,42.25
2019-01-21T06:35:05.762Z,41.45
2019-01-21T06:37:44.405Z,46.85
2019-01-21T06:40:37.377Z,44.88
2019-01-21T06:43:09.824Z,39.85
2019-01-21T06:45:54.644Z,49.77
2019-01-21T06:48:35.270Z,41.60
2019-01-21T06:51:32.307Z,45.00
2019-01-21T06:54:21.375Z,51.25
2019-01-21T06:57:25.227Z,44.77
2019-01-21T06:59:57.120Z,47.88
2019-01-21T07:02:59.204Z,93.22
2019-01-21T07:05:59.802Z,45.67
2019-01-21T07:08:41.072Z,41.95
2019-01-21T07:11:24.268Z,47.05
2019-01-21T07:14:00.088Z,46.58
2019-01-21T07:16:51.512Z,42.27
2019-01-21T07:19:31.497Z,45.28
2019-01-21T07:22:08.035Z,43.10
2019-01-21T07:24:47.002Z,54.08
2019-01-21T07:27:19.868Z,46.45
2019-01-21T07:29:50.726Z,51.95
2019-01-21T07:32:55.419Z,50.10
2019-01-21T07:35:42.045Z,45.35
2019-01-21T07:38:15.701Z,42.43
2019-01-21T07:41:05.771Z,40.83
2019-01-21T07:43:38.744Z,44.77
2019-01-21T07:46:12.682Z,54.93
2019-01-21T07:49:22.283Z,46.28
2019-01-21T07:52:27.080Z,48.50
2019-01-21T07:55:21.675Z,54.10
2019-01-21T07:58:26.149Z,50.88
2019-01-21T08:01:13.508Z,72.15
2019-01-21T08:03:47.449Z,69.85
2019-01-21T08:06:20.522Z,46.02
2019-01-21T08:09:00.358Z,54.08
2019-01-21T08:12:09.907Z,57.90
2019-01-21T08:14:43.077Z,46.08
2019-01-21T08:17:27.371Z,51.90
2019-01-21T08:20:03.076Z,51.40
2019-01-21T08:23:15.973Z,42.05
2019-01-21T08:25:49.316Z,43.78
2019-01-21T08:28:56.212Z,49.33
2019-01-21T08:31:39.404Z,54.48
2019-01-21T08:34:48.312Z,45.65
2019-01-21T08:37:32.625Z,45.70
2019-01-21T08:40:05.195Z,44.45
2019-01-21T08:42:46.274Z,48.13
2019-01-21T08:46:04.167Z,47.15
2019-01-21T08:48:53.483Z,48.00
2019-01-21T08:51:29.333Z,50.90
2019-01-21T08:54:11.572Z,46.53
2019-01-21T08:56:58.696Z,47.17
2019-01-21T08:59:56.262Z,49.50
2019-01-21T09:02:41.567Z,46.08
2019-01-21T09:05:37.428Z,39.48
2019-01-21T09:08:37.446Z,52.33
2019-01-21T09:11:26.911Z,46.83
2019-01-21T09:14:01.443Z,41.73
2019-01-21T09:16:48.429Z,47.58
2019-01-21T09:19:37.236Z,41.13
2019-01-21T09:22:31.403Z,42.50
2019-01-21T09:25:13.593Z,47.33
2019-01-21T09:28:07.317Z,40.75
2019-01-21T09:30:48.238Z,41.05
2019-01-21T09:33:28.492Z,45.95
2019-01-21T09:35:58.453Z,45.08
2019-01-21T09:38:47.277Z,39.25
2019-01-21T09:41:29.478Z,35.15
2019-01-21T09:44:12.811Z,45.35
2019-01-21T09:47:08.407Z,41.28
2019-01-21T09:49:35.228Z,42.62
2019-01-21T09:52:03.226Z,44.05
2019-01-21T09:54:29.368Z,42.00
2019-01-21T09:57:06.511Z,43.00
2019-01-21T09:59:35.943Z,38.80
2019-01-21T10:02:04.823Z,45.90
2019-01-21T10:04:35.405Z,44.53
2019-01-21T10:07:17.370Z,42.65
2019-01-21T10:09:55.347Z,48.08
2019-01-21T10:12:54.078Z,41.70
2019-01-21T10:15:43.844Z,38.58
2019-01-21T10:18:44.962Z,40.85
2019-01-21T10:21:48.623Z,45.58
2019-01-21T10:24:34.885Z,39.25
2019-01-21T10:27:28.595Z,43.68
2019-01-21T10:30:15.160Z,39.70
2019-01-21T10:33:18.672Z,42.08
2019-01-21T10:36:12.446Z,38.00
2019-01-21T10:38:58.079Z,45.25
2019-01-21T10:41:35.464Z,42.45
2019-01-21T10:44:21.023Z,42.15
2019-01-21T10:47:06.177Z,39.95
2019-01-21T10:49:57.443Z,42.50
2019-01-21T10:52:51.334Z,37.38
2019-01-21T10:55:36.588Z,39.40
2019-01-21T10:58:21.103Z,43.58
2019-01-21T11:01:13.506Z,39.18
2019-01-21T11:04:07.616Z,41.18
2019-01-21T11:07:10.711Z,51.65
2019-01-21T11:09:55.743Z,48.58
2019-01-21T11:12:30.407Z,38.90
2019-01-21T11:15:18.699Z,39.15
2019-01-21T11:17:58.814Z,40.75
2019-01-21T11:20:57.962Z,36.55
2019-01-21T11:24:03.676Z,32.83
2019-01-21T11:27:10.229Z,39.85
2019-01-21T11:30:18.966Z,34.38
2019-01-21T11:33:32.759Z,34.70
2019-01-21T11:36:31.246Z,39.35
2019-01-21T11:39:14.973Z,41.63
2019-01-21T11:42:15.929Z,39.10
2019-01-21T11:44:54.240Z,36.23
2019-01-21T11:47:49.490Z,31.10
2019-01-21T11:50:42.570Z,41.75
2019-01-21T11:53:53.287Z,36.35
2019-01-21T11:56:52.486Z,37.98
2019-01-21T12:00:10.400Z,36.95
2019-01-21T12:02:42.169Z,33.45
2019-01-21T12:05:22.422Z,42.50
2019-01-21T12:08:26.092Z,40.38
2019-01-21T12:11:42.844Z,39.42
2019-01-21T12:14:48.755Z,39.15
2019-01-21T12:17:35.043Z,39.45
2019-01-21T12:20:23.175Z,35.95
2019-01-21T12:22:55.928Z,39.23
2019-01-21T12:25:48.170Z,43.98
2019-01-21T12:28:52.948Z,42.70
2019-01-21T12:31:42.754Z,36.20
2019-01-21T12:34:46.597Z,38.83
2019-01-21T12:37:33.608Z,34.88
2019-01-21T12:40:32.128Z,35.73
2019-01-21T12:43:17.397Z,39.50
2019-01-21T12:45:58.289Z,35.60
2019-01-21T12:48:34.282Z,40.55
2019-01-21T12:51:18.930Z,39.67
2019-01-21T12:54:12.075Z,33.25
2019-01-21T12:57:11.082Z,42.13
2019-01-21T13:00:00.635Z,31.95
2019-01-21T13:02:51.659Z,32.85
2019-01-21T13:05:54.038Z,33.28
2019-01-21T13:08:45.246Z,36.48
2019-01-21T13:12:02.509Z,29.85
2019-01-21T13:14:37.440Z,35.60
2019-01-21T13:17:20.088Z,41.02
2019-01-21T13:20:15.148Z,34.33
2019-01-21T13:22:56.125Z,36.68
2019-01-21T13:25:38.281Z,37.83
2019-01-21T13:28:23.301Z,36.63
2019-01-21T13:31:26.984Z,35.48
2019-01-21T13:34:05.976Z,37.00
2019-01-21T13:36:44.125Z,39.63
2019-01-21T13:39:36.772Z,36.50
2019-01-21T13:42:29.752Z,39.42
2019-01-21T13:45:19.237Z,37.15
2019-01-21T13:48:05.103Z,46.68
2019-01-21T13:50:37.255Z,37.67
2019-01-21T13:53:07.868Z,39.13
2019-01-21T13:55:41.771Z,39.65
2019-01-21T13:58:40.876Z,39.90
2019-01-21T14:01:29.822Z,47.15
2019-01-21T14:04:15.092Z,49.87
2019-01-21T14:07:09.927Z,47.40
2019-01-21T14:09:51.041Z,43.00
2019-01-21T14:12:28.750Z,44.77
2019-01-21T14:15:27.164Z,40.65
2019-01-21T14:18:15.413Z,44.47
2019-01-21T14:21:15.520Z,44.50
2019-01-21T14:24:21.081Z,49.20
2019-01-21T14:27:24.727Z,40.27
2019-01-21T14:30:09.988Z,43.33
2019-01-21T14:32:39.929Z,43.30
2019-01-21T14:35:29.322Z,38.20
2019-01-21T14:38:42.335Z,43.07
2019-01-21T14:44:50.254Z,41.15
2019-01-21T14:47:50.313Z,37.80
2019-01-21T14:50:32.366Z,42.43
2019-01-21T14:53:02.266Z,45.50
2019-01-21T14:56:12.963Z,40.73
2019-01-21T14:59:03.258Z,38.92
2019-01-21T15:01:37.526Z,38.83
2019-01-21T15:04:33.487Z,46.48
2019-01-21T15:07:29.278Z,42.23
2019-01-21T15:10:47.349Z,45.20
2019-01-21T15:13:33.744Z,52.08
2019-01-21T15:16:15.390Z,43.13
2019-01-21T15:19:05.241Z,41.30
2019-01-21T15:22:09.471Z,43.48
2019-01-21T15:24:57.175Z,40.48
2019-01-21T15:27:47.283Z,40.10
2019-01-21T15:30:23.488Z,43.98
2019-01-21T15:33:05.755Z,49.03
2019-01-21T15:36:10.460Z,45.23
2019-01-21T15:39:33.574Z,48.15
2019-01-21T15:42:19.210Z,42.10
2019-01-21T15:44:49.191Z,40.30
2019-01-21T15:47:37.380Z,46.37
2019-01-21T15:50:17.826Z,41.50
2019-01-21T15:52:55.214Z,46.63
2019-01-21T15:55:46.843Z,43.83
2019-01-21T15:58:37.348Z,44.45
2019-01-21T16:01:40.842Z,45.67
2019-01-21T16:04:27.066Z,46.73
2019-01-21T16:07:17.028Z,43.48
2019-01-21T16:10:48.944Z,44.27
2019-01-21T16:13:32.194Z,42.90
2019-01-21T16:17:01.658Z,49.40
2019-01-21T16:19:36.825Z,54.13
2019-01-21T16:23:01.008Z,55.30
2019-01-21T16:25:46.271Z,46.10
2019-01-21T16:28:47.400Z,48.42
2019-01-21T16:31:24.202Z,44.77
2019-01-21T16:34:17.107Z,42.17
2019-01-21T16:37:40.096Z,45.12
2019-01-21T16:40:54.936Z,48.08
2019-01-21T16:44:20.457Z,54.30
2019-01-21T16:47:01.857Z,49.73
2019-01-21T16:49:39.970Z,53.95
2019-01-21T16:52:06.083Z,47.20
2019-01-21T16:54:58.307Z,54.53
2019-01-21T16:57:30.568Z,52.67
2019-01-21T17:00:08.370Z,50.00
2019-01-21T17:02:59.037Z,48.98
2019-01-21T17:05:40.238Z,51.02
2019-01-21T17:08:09.656Z,50.48
2019-01-21T17:10:40.015Z,50.88
2019-01-21T17:13:10.744Z,58.52
2019-01-21T17:15:54.989Z,65.45
2019-01-21T17:18:42.936Z,56.92
2019-01-21T17:21:19.108Z,50.23
2019-01-21T17:23:49.292Z,45.40
2019-01-21T17:26:31.618Z,50.40
2019-01-21T17:29:37.344Z,47.93
2019-01-21T17:32:08.848Z,46.95
2019-01-21T17:34:36.107Z,59.38
2019-01-21T17:37:23.528Z,55.80
2019-01-21T17:39:55.759Z,56.55
2019-01-21T17:42:39.507Z,56.33
2019-01-21T17:45:11.969Z,62.73
2019-01-21T17:47:46.940Z,65.95
2019-01-21T17:50:17.587Z,57.80
2019-01-21T17:52:47.844Z,64.90
2019-01-21T17:55:17.052Z,61.18
2019-01-21T17:57:43.136Z,59.75
2019-01-21T18:00:26.816Z,52.65
2019-01-21T18:03:01.879Z,47.40
2019-01-21T18:05:28.060Z,57.98
2019-01-21T18:07:59.297Z,51.68
2019-01-21T18:10:27.367Z,51.37
2019-01-21T18:13:01.596Z,59.58
2019-01-21T18:15:27.747Z,57.20
2019-01-21T18:18:00.983Z,58.08
2019-01-21T18:20:28.090Z,62.27
2019-01-21T18:22:55.175Z,63.45
2019-01-21T18:25:22.827Z,56.75
2019-01-21T18:27:55.969Z,55.25
2019-01-21T18:30:38.712Z,60.00
2019-01-21T18:33:06.723Z,58.80
2019-01-21T18:35:53.897Z,50.33
2019-01-21T18:38:20.071Z,65.87
2019-01-21T18:40:46.282Z,56.77
2019-01-21T18:43:12.443Z,53.70
2019-01-21T18:45:39.414Z,53.98
2019-01-21T18:48:05.506Z,55.30
2019-01-21T18:50:31.706Z,53.50
2019-01-21T18:53:00.020Z,53.15
2019-01-21T18:55:28.356Z,62.00
2019-01-21T18:57:56.459Z,57.83
2019-01-21T19:00:30.574Z,65.97
2019-01-21T19:02:57.774Z,58.48
2019-01-21T19:05:29.797Z,61.80
2019-01-21T19:08:00.392Z,64.10
2019-01-21T19:10:35.302Z,56.00
2019-01-21T19:13:01.452Z,62.38
2019-01-21T19:15:35.612Z,61.58
2019-01-21T19:18:01.831Z,60.38
2019-01-21T19:20:30.220Z,60.40
2019-01-21T19:23:11.761Z,68.80
2019-01-21T19:25:42.827Z,60.85
2019-01-21T19:28:09.026Z,65.75
2019-01-21T19:30:35.454Z,53.50
2019-01-21T19:33:03.028Z,61.30
2019-01-21T19:35:34.603Z,59.83
2019-01-21T19:38:13.514Z,73.30
2019-01-21T19:40:40.942Z,76.02
2019-01-21T19:43:08.176Z,69.90
2019-01-21T19:45:43.314Z,234.83
2019-01-21T19:48:11.579Z,81.78
2019-01-21T19:50:45.192Z,61.58
2019-01-21T19:53:11.353Z,64.37
2019-01-21T19:55:42.395Z,62.60
2019-01-21T19:58:17.825Z,59.03
2019-01-21T20:01:04.208Z,60.12
2019-01-21T20:03:37.693Z,59.13
2019-01-21T20:06:03.640Z,64.00
2019-01-21T20:08:31.914Z,60.20
2019-01-21T20:10:59.865Z,65.70
2019-01-21T20:13:37.738Z,71.77
2019-01-21T20:16:13.926Z,65.05
2019-01-21T20:18:45.354Z,70.00
2019-01-21T20:21:14.161Z,75.78
2019-01-21T20:23:40.406Z,82.20
2019-01-21T20:26:24.305Z,68.95
2019-01-21T20:28:56.421Z,66.02
2019-01-21T20:31:28.389Z,63.20
2019-01-21T20:33:55.553Z,67.72
2019-01-21T20:36:35.312Z,63.05
2019-01-21T20:39:06.480Z,61.42
2019-01-21T20:41:42.141Z,58.38
2019-01-21T20:44:09.199Z,68.33
2019-01-21T20:46:49.020Z,58.25
2019-01-21T20:49:21.557Z,55.63
2019-01-21T20:51:49.231Z,63.80
2019-01-21T20:54:17.333Z,60.28
2019-01-21T20:56:53.490Z,59.75
2019-01-21T20:59:19.922Z,63.33
2019-01-21T21:02:03.153Z,58.83
2019-01-21T21:04:29.245Z,63.80
2019-01-21T21:06:55.435Z,65.90
2019-01-21T21:09:30.584Z,69.27
2019-01-21T21:11:56.751Z,69.22
2019-01-21T21:14:28.807Z,78.87
2019-01-21T21:16:58.034Z,72.55
2019-01-21T21:19:25.247Z,63.42
2019-01-21T21:21:52.402Z,61.40
2019-01-21T21:24:20.938Z,61.05
2019-01-21T21:26:50.658Z,60.35
2019-01-21T21:29:20.706Z,61.85
2019-01-21T21:31:53.460Z,56.25
2019-01-21T21:34:25.637Z,58.87
2019-01-21T21:36:55.836Z,54.38
2019-01-21T21:39:30.770Z,63.05
2019-01-21T21:41:59.009Z,60.75
2019-01-21T21:44:25.540Z,56.75
2019-01-21T21:47:10.868Z,64.20
2019-01-21T21:49:37.940Z,62.00
2019-01-21T21:52:06.439Z,63.75
2019-01-21T21:54:38.789Z,64.92
2019-01-21T21:57:04.931Z,58.52
2019-01-21T21:59:31.034Z,69.32
2019-01-21T22:02:07.138Z,67.32
2019-01-21T22:04:36.692Z,69.45
2019-01-21T22:07:04.778Z,63.40
2019-01-21T22:09:30.835Z,62.13
2019-01-21T22:11:57.787Z,71.47
2019-01-21T22:14:24.992Z,73.52
2019-01-21T22:16:51.254Z,64.00
2019-01-21T22:19:17.561Z,75.28
2019-01-21T22:21:48.003Z,61.63
2019-01-21T22:24:14.937Z,69.45
2019-01-21T22:26:45.111Z,67.03
2019-01-21T22:29:13.184Z,66.30
2019-01-21T22:31:51.337Z,66.85
2019-01-21T22:34:19.871Z,61.85
2019-01-21T22:36:49.893Z,67.00
2019-01-21T22:39:16.321Z,76.65
2019-01-21T22:41:45.576Z,74.72
2019-01-21T22:44:14.564Z,73.60
2019-01-21T22:46:40.695Z,60.58
2019-01-21T22:49:11.331Z,73.87
2019-01-21T22:51:38.563Z,63.00
2019-01-21T22:54:04.893Z,69.72
2019-01-21T22:56:33.043Z,58.20
2019-01-21T22:59:03.078Z,64.82
2019-01-21T23:01:30.893Z,64.90
2019-01-21T23:04:01.423Z,69.65
2019-01-21T23:06:29.249Z,68.33
2019-01-21T23:09:07.502Z,67.55
2019-01-21T23:11:34.938Z,105.75
2019-01-21T23:14:06.986Z,66.07
2019-01-21T23:16:34.112Z,83.03
2019-01-21T23:19:00.245Z,74.00
2019-01-21T23:21:26.602Z,100.02
2019-01-21T23:24:05.012Z,68.75
2019-01-21T23:26:32.545Z,68.52
2019-01-21T23:28:59.102Z,70.45
2019-01-21T23:31:37.534Z,59.60
2019-01-21T23:34:06.879Z,69.45
2019-01-21T23:36:33.028Z,63.52
2019-01-21T23:39:12.488Z,62.95
2019-01-21T23:41:49.157Z,65.78
2019-01-21T23:44:17.252Z,63.87
2019-01-21T23:46:44.689Z,76.57
2019-01-21T23:49:11.232Z,76.00
2019-01-21T23:51:37.249Z,71.42
2019-01-21T23:54:06.654Z,72.80
2019-01-21T23:56:34.813Z,78.57
2019-01-21T23:59:00.860Z,70.85
